Time;durP1;ratioP1;P1;durP2;ratioP2;P2;SDS_P1;SDS_P2;PMS_P1;PMS_P2;Temp;Humidity;BMP_temperature;BMP_pressure;BME280_temperature;BME280_humidity;BME280_pressure;Samples;Min_cycle;Max_cycle;Signal;HPM_P1;HPM_P2
2023/06/13 00:00:49;;;;;;;6.82;3.28;;;17.70;80.30;;;;;;5011792;28;20037;-85
2023/06/13 00:03:15;;;;;;;9.25;3.10;;;17.60;80.40;;;;;;5010330;28;20081;-85
2023/06/13 00:05:46;;;;;;;8.35;3.03;;;17.50;80.80;;;;;;5013882;28;20054;-85
2023/06/13 00:08:17;;;;;;;5.72;2.80;;;17.50;80.30;;;;;;5010504;28;20113;-85
2023/06/13 00:10:47;;;;;;;7.90;3.30;;;17.50;80.50;;;;;;5016697;28;20061;-85
2023/06/13 00:13:14;;;;;;;6.57;3.25;;;17.40;80.50;;;;;;5012497;28;20077;-85
2023/06/13 00:15:48;;;;;;;5.03;3.28;;;17.40;80.50;;;;;;5016445;28;20064;-85
2023/06/13 00:18:15;;;;;;;9.50;3.42;;;17.40;80.30;;;;;;5008480;28;20041;-84
2023/06/13 00:20:41;;;;;;;4.90;3.50;;;17.40;80.40;;;;;;5001509;28;20069;-85
2023/06/13 00:23:08;;;;;;;7.00;3.20;;;17.30;80.60;;;;;;5009537;28;20095;-85
2023/06/13 00:25:34;;;;;;;5.93;3.50;;;17.30;80.40;;;;;;5010513;28;20041;-85
2023/06/13 00:28:00;;;;;;;4.60;2.95;;;17.30;80.50;;;;;;5014754;28;20542;-85
2023/06/13 00:30:26;;;;;;;10.73;3.85;;;17.40;80.50;;;;;;5010380;28;20045;-85
2023/06/13 00:32:54;;;;;;;12.15;3.88;;;17.30;80.70;;;;;;5010220;28;20104;-85
2023/06/13 00:35:20;;;;;;;6.20;3.13;;;17.30;80.70;;;;;;5006781;28;20048;-85
2023/06/13 00:37:47;;;;;;;4.63;3.15;;;17.30;80.50;;;;;;5022503;28;20374;-86
2023/06/13 00:40:12;;;;;;;7.20;4.13;;;17.30;80.80;;;;;;5011403;28;20543;-85
2023/06/13 00:42:38;;;;;;;5.28;3.95;;;17.20;81.20;;;;;;5010468;28;20038;-85
2023/06/13 00:45:24;;;;;;;5.82;3.45;;;17.20;81.40;;;;;;5011042;28;20400;-85
2023/06/13 00:47:55;;;;;;;;;;;17.10;82.10;;;;;;5014019;28;20053;-85
2023/06/13 00:50:30;;;;;;;6.63;3.47;;;17.10;81.50;;;;;;5000225;28;20286;-85
2023/06/13 00:52:59;;;;;;;5.00;3.13;;;17.10;81.70;;;;;;5008529;28;20052;-85
2023/06/13 00:55:26;;;;;;;6.85;3.50;;;17.00;81.60;;;;;;5006403;28;20073;-85
2023/06/13 00:57:55;;;;;;;11.70;3.50;;;17.00;82.10;;;;;;5008604;28;20030;-85
2023/06/13 01:00:26;;;;;;;8.82;3.55;;;17.00;82.30;;;;;;4991937;28;20041;-85
2023/06/13 01:02:57;;;;;;;7.00;3.40;;;16.90;82.20;;;;;;5008661;28;20083;-85
2023/06/13 01:05:28;;;;;;;6.07;3.33;;;16.90;82.10;;;;;;5009968;28;20400;-85
2023/06/13 01:07:57;;;;;;;7.38;3.85;;;16.90;82.60;;;;;;5010334;28;20060;-85
2023/06/13 01:10:27;;;;;;;4.22;3.72;;;16.80;82.90;;;;;;5008952;28;20033;-85
2023/06/13 01:13:04;;;;;;;8.02;3.40;;;16.80;83.10;;;;;;5006857;28;20124;-85
2023/06/13 01:15:34;;;;;;;4.95;3.30;;;16.80;84.00;;;;;;5008945;28;20085;-85
2023/06/13 01:18:03;;;;;;;5.18;3.58;;;16.80;84.90;;;;;;5009149;28;20050;-85
2023/06/13 01:20:31;;;;;;;10.52;3.97;;;16.70;85.10;;;;;;5011186;28;20085;-85
2023/06/13 01:23:03;;;;;;;5.15;3.95;;;16.70;84.20;;;;;;5009783;28;20099;-82
2023/06/13 01:25:37;;;;;;;10.25;3.83;;;16.70;83.70;;;;;;5009273;28;20041;-84
2023/06/13 01:28:06;;;;;;;4.43;3.60;;;16.60;83.20;;;;;;5009798;28;20044;-85
2023/06/13 01:30:34;;;;;;;8.35;4.47;;;16.60;83.40;;;;;;5009026;28;20042;-85
2023/06/13 01:33:00;;;;;;;6.53;3.33;;;16.60;83.70;;;;;;5010439;28;20120;-85
2023/06/13 01:35:27;;;;;;;7.63;3.80;;;16.60;83.70;;;;;;5008517;28;20053;-85
2023/06/13 01:37:53;;;;;;;5.80;3.85;;;16.50;84.10;;;;;;5008822;28;20053;-85
2023/06/13 01:40:19;;;;;;;6.65;3.45;;;16.40;83.90;;;;;;5008242;28;21621;-85
2023/06/13 01:42:45;;;;;;;8.88;3.38;;;16.50;83.50;;;;;;4999132;28;20052;-85
2023/06/13 01:45:12;;;;;;;3.83;3.42;;;16.50;83.60;;;;;;5009233;28;20030;-85
2023/06/13 01:47:54;;;;;;;5.63;3.50;;;16.50;83.80;;;;;;5010449;28;20042;-84
2023/06/13 01:50:48;;;;;;;7.10;3.80;;;16.50;83.70;;;;;;4992239;28;20508;-85
2023/06/13 01:53:36;;;;;;;4.88;3.90;;;16.50;83.50;;;;;;5007522;28;20172;-85
2023/06/13 01:56:08;;;;;;;4.72;3.75;;;16.60;83.60;;;;;;5004295;28;20121;-84
2023/06/13 01:58:54;;;;;;;6.30;3.67;;;16.60;84.20;;;;;;4995896;28;20104;-85
2023/06/13 02:01:20;;;;;;;5.68;3.55;;;16.60;83.80;;;;;;5005940;28;20049;-85
2023/06/13 02:03:46;;;;;;;8.35;3.22;;;16.60;83.50;;;;;;5012797;28;20037;-85
2023/06/13 02:06:12;;;;;;;6.57;4.03;;;16.50;83.60;;;;;;5009531;28;20050;-85
2023/06/13 02:08:38;;;;;;;8.68;3.78;;;16.50;83.60;;;;;;4990071;28;20038;-85
2023/06/13 02:11:03;;;;;;;7.93;4.25;;;16.50;83.80;;;;;;5025748;28;20084;-85
2023/06/13 02:13:29;;;;;;;8.80;3.67;;;16.50;84.20;;;;;;5010275;28;20056;-85
2023/06/13 02:15:54;;;;;;;9.57;4.05;;;16.60;82.80;;;;;;5004483;28;20520;-85
2023/06/13 02:18:20;;;;;;;6.53;3.67;;;16.50;83.30;;;;;;5009064;28;20057;-85
2023/06/13 02:20:45;;;;;;;7.65;3.50;;;16.50;83.20;;;;;;5009317;28;20095;-85
2023/06/13 02:23:12;;;;;;;8.55;4.10;;;16.50;83.70;;;;;;5008066;28;20042;-84
2023/06/13 02:25:38;;;;;;;10.85;3.53;;;16.50;83.60;;;;;;5015791;28;20046;-85
2023/06/13 02:28:04;;;;;;;9.02;3.60;;;16.40;84.10;;;;;;5001680;28;20040;-85
2023/06/13 02:30:29;;;;;;;13.93;5.07;;;16.40;84.40;;;;;;5008803;28;20049;-85
2023/06/13 02:32:55;;;;;;;10.70;4.13;;;16.30;85.00;;;;;;5011024;28;20038;-85
2023/06/13 02:35:23;;;;;;;8.32;3.80;;;16.30;84.70;;;;;;5012913;28;20070;-85
2023/06/13 02:37:53;;;;;;;4.72;3.33;;;16.20;84.70;;;;;;5012412;28;20046;-85
2023/06/13 02:40:22;;;;;;;8.90;3.97;;;16.20;85.00;;;;;;5016123;28;20049;-85
2023/06/13 02:42:49;;;;;;;6.75;3.63;;;16.10;85.10;;;;;;5011550;28;20045;-85
2023/06/13 02:45:16;;;;;;;9.98;3.38;;;15.90;85.60;;;;;;5015609;28;20037;-84
2023/06/13 02:47:42;;;;;;;6.22;3.92;;;15.80;85.90;;;;;;5018854;28;20392;-84
2023/06/13 02:50:07;;;;;;;9.65;3.65;;;15.70;85.90;;;;;;5014348;28;20038;-84
2023/06/13 02:52:33;;;;;;;6.22;3.75;;;15.70;86.10;;;;;;4999969;28;20038;-84
2023/06/13 02:54:59;;;;;;;11.77;4.20;;;15.60;86.10;;;;;;5019942;28;20463;-84
2023/06/13 02:57:25;;;;;;;7.47;3.40;;;15.50;86.20;;;;;;5017227;28;20041;-85
2023/06/13 02:59:50;;;;;;;6.53;4.05;;;15.60;86.80;;;;;;5014922;28;20045;-85
2023/06/13 03:02:16;;;;;;;5.68;3.53;;;15.50;86.60;;;;;;5010135;28;20045;-85
2023/06/13 03:04:42;;;;;;;6.95;3.83;;;15.40;87.20;;;;;;5014044;28;20034;-85
2023/06/13 03:07:10;;;;;;;4.95;3.28;;;15.50;86.90;;;;;;4998399;28;20041;-85
2023/06/13 03:09:36;;;;;;;10.27;3.85;;;15.50;87.20;;;;;;5000806;28;20111;-84
2023/06/13 03:12:02;;;;;;;7.32;3.60;;;15.40;87.10;;;;;;5019275;28;20469;-85
2023/06/13 03:14:43;;;;;;;6.82;3.30;;;15.40;87.60;;;;;;5020416;28;20044;-85
2023/06/13 03:17:08;;;;;;;7.55;3.63;;;15.30;88.20;;;;;;5010351;28;20053;-85
2023/06/13 03:19:34;;;;;;;9.32;3.88;;;15.20;88.20;;;;;;5011414;28;20677;-85
2023/06/13 03:22:00;;;;;;;9.23;3.50;;;15.20;88.20;;;;;;5028195;28;20400;-85
2023/06/13 03:24:26;;;;;;;9.00;3.85;;;15.20;88.10;;;;;;5012497;28;20822;-85
2023/06/13 03:26:51;;;;;;;9.13;3.92;;;15.20;88.30;;;;;;5004489;28;20052;-85
2023/06/13 03:29:17;;;;;;;8.77;3.75;;;15.20;88.40;;;;;;4995833;28;20505;-86
2023/06/13 03:31:42;;;;;;;7.25;3.58;;;15.20;88.30;;;;;;5012331;28;20045;-85
2023/06/13 03:34:08;;;;;;;5.90;3.40;;;15.20;88.80;;;;;;5012086;28;20512;-85
2023/06/13 03:36:34;;;;;;;5.88;4.00;;;15.20;88.50;;;;;;5008425;28;20405;-85
2023/06/13 03:39:00;;;;;;;5.45;3.63;;;15.20;88.60;;;;;;5030125;28;20063;-85
2023/06/13 03:41:26;;;;;;;6.00;4.05;;;15.20;88.80;;;;;;5006732;28;20505;-85
2023/06/13 03:43:51;;;;;;;6.47;4.15;;;15.10;89.10;;;;;;5030633;28;20109;-85
2023/06/13 03:46:17;;;;;;;6.75;3.83;;;15.10;89.10;;;;;;5015146;28;20038;-84
2023/06/13 03:48:43;;;;;;;7.93;3.63;;;15.10;89.20;;;;;;5011721;28;20041;-84
2023/06/13 03:51:08;;;;;;;10.88;3.90;;;15.10;89.40;;;;;;5013611;28;20045;-84
2023/06/13 03:53:34;;;;;;;5.80;3.60;;;15.10;89.60;;;;;;5009216;28;20077;-85
2023/06/13 03:56:00;;;;;;;8.82;3.78;;;15.10;89.70;;;;;;5010540;28;20411;-85
2023/06/13 03:58:26;;;;;;;6.47;3.58;;;15.10;90.00;;;;;;5012088;28;20053;-85
2023/06/13 04:00:54;;;;;;;7.82;3.60;;;15.10;90.00;;;;;;5013687;28;20041;-85
2023/06/13 04:03:19;;;;;;;8.77;4.00;;;15.10;90.10;;;;;;5004957;28;20069;-85
2023/06/13 04:05:45;;;;;;;7.78;3.83;;;15.20;90.20;;;;;;5011104;28;20037;-85
2023/06/13 04:08:11;;;;;;;6.10;3.80;;;15.30;90.30;;;;;;5020810;28;20160;-85
2023/06/13 04:10:37;;;;;;;10.15;3.70;;;15.40;90.50;;;;;;5012573;28;20061;-85
2023/06/13 04:13:02;;;;;;;13.30;3.70;;;15.50;90.30;;;;;;5012618;28;20038;-85
2023/06/13 04:15:29;;;;;;;9.68;3.28;;;15.60;90.20;;;;;;5008727;28;20385;-84
2023/06/13 04:17:55;;;;;;;4.68;3.40;;;15.70;90.30;;;;;;5013537;28;20072;-85
2023/06/13 04:20:24;;;;;;;6.75;3.53;;;15.80;90.60;;;;;;5010649;28;20066;-86
2023/06/13 04:22:51;;;;;;;6.05;3.45;;;15.90;90.40;;;;;;5010108;28;20046;-87
2023/06/13 04:25:17;;;;;;;3.58;2.92;;;16.10;90.40;;;;;;5012182;28;20847;-85
2023/06/13 04:27:44;;;;;;;6.30;3.50;;;16.30;90.40;;;;;;5011175;28;20100;-86
2023/06/13 04:30:11;;;;;;;7.10;3.00;;;16.80;90.40;;;;;;5017052;28;20041;-86
2023/06/13 04:32:37;;;;;;;9.52;3.80;;;17.70;89.30;;;;;;4995571;28;20488;-86
2023/06/13 04:35:03;;;;;;;5.22;3.20;;;18.90;87.30;;;;;;5030947;28;20092;-84
2023/06/13 04:37:30;;;;;;;4.35;3.10;;;19.90;85.50;;;;;;5009585;28;20049;-85
2023/06/13 04:39:56;;;;;;;7.07;3.28;;;20.70;84.60;;;;;;5009935;28;20077;-85
2023/06/13 04:42:27;;;;;;;11.00;2.95;;;20.90;83.20;;;;;;4998342;28;20091;-85
2023/06/13 04:44:56;;;;;;;6.65;2.50;;;21.10;82.50;;;;;;5010894;28;20074;-85
2023/06/13 04:47:27;;;;;;;9.88;3.17;;;21.50;82.20;;;;;;5007289;28;20041;-85
2023/06/13 04:49:58;;;;;;;3.45;2.85;;;22.30;81.20;;;;;;5004726;28;20045;-83
2023/06/13 04:52:33;;;;;;;7.55;3.88;;;22.70;80.20;;;;;;4989368;28;20042;-85
2023/06/13 04:55:00;;;;;;;6.82;3.67;;;23.30;79.20;;;;;;4989522;28;20080;-83
2023/06/13 04:57:27;;;;;;;5.03;3.42;;;23.70;78.70;;;;;;5002881;28;20041;-83
2023/06/13 04:59:53;;;;;;;6.45;3.40;;;23.70;77.30;;;;;;5006283;28;20048;-85
2023/06/13 05:02:18;;;;;;;7.43;3.40;;;23.70;76.50;;;;;;5008460;28;20042;-84
2023/06/13 05:04:47;;;;;;;5.88;4.03;;;23.50;76.40;;;;;;5005961;28;20064;-83
2023/06/13 05:07:14;;;;;;;10.70;3.22;;;23.90;76.80;;;;;;5007120;28;20075;-83
2023/06/13 05:09:43;;;;;;;7.30;2.85;;;24.10;76.20;;;;;;4993418;28;20042;-84
2023/06/13 05:12:10;;;;;;;16.73;3.42;;;24.10;75.70;;;;;;5009032;28;20038;-85
2023/06/13 05:14:37;;;;;;;6.43;3.25;;;23.40;75.90;;;;;;4999982;28;20080;-83
2023/06/13 05:17:05;;;;;;;6.97;3.10;;;22.40;76.30;;;;;;4991678;28;20135;-84
2023/06/13 05:19:31;;;;;;;5.00;3.03;;;22.20;76.40;;;;;;5000985;28;20038;-85
2023/06/13 05:22:02;;;;;;;8.90;2.90;;;22.80;76.00;;;;;;4988229;28;20397;-84
2023/06/13 05:24:28;;;;;;;4.72;3.75;;;23.10;75.40;;;;;;5008258;28;20129;-86
2023/06/13 05:26:53;;;;;;;8.52;3.78;;;23.20;75.90;;;;;;5005564;28;20172;-84
2023/06/13 05:29:19;;;;;;;4.10;2.85;;;22.60;75.70;;;;;;5006108;28;20625;-86
2023/06/13 05:31:44;;;;;;;6.70;3.15;;;22.40;75.90;;;;;;5006886;28;20045;-86
2023/06/13 05:34:10;;;;;;;10.80;3.55;;;21.80;76.30;;;;;;4988499;28;20070;-85
2023/06/13 05:36:42;;;;;;;8.57;3.00;;;21.60;76.60;;;;;;5010027;28;20121;-85
2023/06/13 05:39:12;;;;;;;5.55;2.97;;;21.50;76.90;;;;;;5021563;28;20857;-85
2023/06/13 05:41:39;;;;;;;7.43;3.05;;;21.30;77.30;;;;;;5006781;28;21614;-84
2023/06/13 05:44:08;;;;;;;11.35;3.33;;;21.30;78.20;;;;;;4988228;28;20053;-82
2023/06/13 05:46:34;;;;;;;5.43;2.85;;;21.40;77.90;;;;;;5002148;28;20096;-85
2023/06/13 05:48:59;;;;;;;4.10;3.00;;;21.30;77.00;;;;;;4989308;28;20377;-85
2023/06/13 05:51:26;;;;;;;5.05;2.92;;;21.40;76.60;;;;;;4994850;28;20141;-85
2023/06/13 05:53:51;;;;;;;5.93;3.00;;;21.40;77.10;;;;;;5011472;28;20041;-85
2023/06/13 05:56:17;;;;;;;7.40;3.35;;;21.50;76.90;;;;;;5009238;28;20037;-84
2023/06/13 05:58:44;;;;;;;4.43;2.85;;;21.50;76.50;;;;;;5005514;28;20061;-85
2023/06/13 06:01:10;;;;;;;8.38;2.40;;;21.60;76.10;;;;;;5006198;28;20041;-84
2023/06/13 06:03:52;;;;;;;7.97;2.88;;;21.60;76.00;;;;;;4977980;28;20408;-86
2023/06/13 06:06:17;;;;;;;6.68;2.83;;;21.70;76.00;;;;;;5028012;28;20053;-85
2023/06/13 06:08:45;;;;;;;6.32;3.00;;;21.60;76.30;;;;;;5007739;28;20033;-86
2023/06/13 06:11:11;;;;;;;5.38;2.78;;;21.40;75.70;;;;;;5004022;28;20036;-85
2023/06/13 06:13:36;;;;;;;8.00;3.03;;;21.50;76.20;;;;;;4996244;28;20499;-84
2023/06/13 06:16:03;;;;;;;9.25;3.20;;;21.70;75.70;;;;;;5018742;28;20420;-84
2023/06/13 06:18:29;;;;;;;7.63;3.35;;;21.70;75.40;;;;;;5013842;28;20065;-83
2023/06/13 06:21:02;;;;;;;4.45;2.92;;;21.60;75.80;;;;;;5009268;28;20103;-84
2023/06/13 06:23:28;;;;;;;6.90;3.65;;;21.70;74.90;;;;;;4996082;28;20038;-83
2023/06/13 06:25:56;;;;;;;3.65;3.00;;;21.90;77.10;;;;;;5010848;28;20102;-83
2023/06/13 06:28:24;;;;;;;9.02;3.38;;;21.70;75.90;;;;;;5016386;28;20408;-84
2023/06/13 06:30:50;;;;;;;5.57;2.90;;;21.70;75.90;;;;;;5015422;28;20042;-85
2023/06/13 06:33:20;;;;;;;9.63;3.42;;;21.80;76.40;;;;;;5012693;28;20046;-85
2023/06/13 06:35:52;;;;;;;7.32;3.25;;;22.10;76.30;;;;;;5009274;28;20103;-86
2023/06/13 06:38:21;;;;;;;6.40;3.03;;;22.00;75.40;;;;;;5006429;28;20389;-85
2023/06/13 06:40:46;;;;;;;4.35;3.15;;;22.00;75.90;;;;;;5010314;28;20061;-83
2023/06/13 06:43:12;;;;;;;13.27;3.28;;;22.00;76.00;;;;;;5012955;28;20099;-84
2023/06/13 06:45:37;;;;;;;6.25;3.30;;;22.20;76.50;;;;;;5012658;28;20041;-85
2023/06/13 06:48:07;;;;;;;6.75;3.30;;;22.00;75.70;;;;;;4992828;28;20527;-85
2023/06/13 06:50:44;;;;;;;5.75;2.78;;;21.80;74.60;;;;;;5014558;28;20038;-85
2023/06/13 06:53:13;;;;;;;6.30;3.17;;;22.00;76.30;;;;;;5011519;28;20046;-85
2023/06/13 06:55:39;;;;;;;7.25;3.28;;;22.10;76.40;;;;;;5006918;28;20065;-86
2023/06/13 06:58:15;;;;;;;6.10;4.35;;;22.00;75.30;;;;;;5005819;28;20045;-85
2023/06/13 07:00:41;;;;;;;5.78;3.25;;;22.00;75.30;;;;;;5006160;28;20046;-85
2023/06/13 07:03:07;;;;;;;7.78;3.10;;;22.30;76.20;;;;;;5004433;28;20038;-86
2023/06/13 07:05:33;;;;;;;4.93;2.85;;;22.40;76.10;;;;;;5009265;28;20121;-86
2023/06/13 07:07:58;;;;;;;4.43;2.35;;;22.30;74.10;;;;;;5027114;28;20120;-86
2023/06/13 07:10:26;;;;;;;6.95;3.28;;;22.30;75.40;;;;;;5011632;28;20037;-85
2023/06/13 07:12:52;;;;;;;3.58;2.60;;;22.30;74.10;;;;;;5013630;28;20080;-84
2023/06/13 07:15:17;;;;;;;4.47;2.83;;;22.40;72.30;;;;;;5002700;28;20065;-85
2023/06/13 07:17:43;;;;;;;5.53;2.88;;;22.40;72.40;;;;;;5008338;28;20041;-85
2023/06/13 07:20:09;;;;;;;4.20;2.83;;;22.50;71.80;;;;;;5003951;28;20515;-85
2023/06/13 07:22:35;;;;;;;6.00;2.50;;;22.60;71.40;;;;;;4992169;28;20042;-85
2023/06/13 07:25:01;;;;;;;2.75;2.28;;;22.80;73.20;;;;;;4985954;28;20079;-84
2023/06/13 07:27:28;;;;;;;5.80;2.35;;;23.30;73.00;;;;;;5010240;28;20480;-85
2023/06/13 07:29:54;;;;;;;6.68;2.40;;;23.30;72.20;;;;;;4991561;28;20393;-85
2023/06/13 07:32:20;;;;;;;6.43;2.60;;;23.60;72.50;;;;;;4988938;28;20042;-86
2023/06/13 07:34:45;;;;;;;8.90;2.55;;;24.10;72.60;;;;;;5009049;28;20044;-86
2023/06/13 07:37:11;;;;;;;7.95;2.20;;;23.90;70.10;;;;;;5003264;28;20530;-86
2023/06/13 07:39:39;;;;;;;7.75;2.70;;;24.00;72.10;;;;;;5007675;28;20034;-85
2023/06/13 07:42:06;;;;;;;4.30;2.28;;;24.10;71.70;;;;;;5006935;28;20041;-85
2023/06/13 07:44:32;;;;;;;6.32;2.20;;;23.80;69.50;;;;;;5010151;28;20501;-85
2023/06/13 07:46:57;;;;;;;5.65;2.50;;;23.90;70.50;;;;;;5003660;28;20057;-86
2023/06/13 07:49:23;;;;;;;3.10;2.17;;;23.60;70.80;;;;;;5008748;28;20045;-87
2023/06/13 07:51:49;;;;;;;5.47;2.65;;;23.80;70.80;;;;;;5006704;28;20453;-85
2023/06/13 07:54:14;;;;;;;4.80;2.05;;;23.60;69.50;;;;;;5010278;28;20489;-86
2023/06/13 07:56:40;;;;;;;5.60;2.13;;;23.80;71.20;;;;;;5009190;28;20037;-85
2023/06/13 07:59:06;;;;;;;3.60;2.15;;;24.10;70.40;;;;;;5004139;28;20041;-85
2023/06/13 08:01:32;;;;;;;12.48;2.72;;;23.90;70.00;;;;;;5007544;28;20034;-85
2023/06/13 08:03:57;;;;;;;5.22;1.92;;;24.30;70.30;;;;;;5009757;28;20080;-86
2023/06/13 08:06:23;;;;;;;4.50;2.10;;;24.10;70.70;;;;;;4992161;28;20475;-86
2023/06/13 08:08:49;;;;;;;3.60;1.83;;;24.80;71.10;;;;;;5007048;28;20050;-86
2023/06/13 08:11:14;;;;;;;5.82;2.40;;;24.40;70.60;;;;;;4992052;28;20095;-85
2023/06/13 08:13:40;;;;;;;5.18;2.33;;;24.60;71.10;;;;;;4991063;28;20045;-86
2023/06/13 08:16:06;;;;;;;3.97;1.95;;;24.90;71.60;;;;;;5009882;28;20038;-85
2023/06/13 08:18:31;;;;;;;7.63;2.45;;;24.70;70.50;;;;;;5007396;28;20124;-86
2023/06/13 08:20:57;;;;;;;3.75;1.80;;;24.90;71.50;;;;;;5009112;28;20041;-86
2023/06/13 08:23:22;;;;;;;7.25;2.13;;;25.10;72.10;;;;;;5011935;28;20476;-87
2023/06/13 08:25:48;;;;;;;6.82;1.90;;;25.20;71.40;;;;;;4990916;28;20045;-86
2023/06/13 08:28:14;;;;;;;6.93;2.00;;;25.20;70.70;;;;;;5004455;28;20508;-85
2023/06/13 08:30:42;;;;;;;4.68;1.80;;;25.20;69.70;;;;;;5009729;28;20038;-86
2023/06/13 08:33:10;;;;;;;7.22;2.00;;;25.30;69.70;;;;;;4991895;28;20034;-86
2023/06/13 08:35:36;;;;;;;4.25;1.75;;;25.10;70.30;;;;;;4989138;28;20164;-85
2023/06/13 08:38:02;;;;;;;5.88;2.22;;;25.20;70.70;;;;;;4986256;28;20134;-86
2023/06/13 08:40:31;;;;;;;4.15;1.90;;;25.60;69.00;;;;;;4994176;28;20100;-85
2023/06/13 08:43:00;;;;;;;3.72;1.90;;;25.30;64.80;;;;;;5012469;28;20037;-86
2023/06/13 09:04:01;;;;;;;9.57;2.40;;;25.20;64.30;;;;;;5008239;28;20052;-86
2023/06/13 12:06:33;;;;;;;5.03;2.60;;;26.50;63.40;;;;;;4929612;29;20050;-83
2023/06/13 12:09:00;;;;;;;;;;;26.60;64.90;;;;;;4857140;29;20076;-83
2023/06/13 12:11:45;;;;;;;8.23;2.97;;;26.60;63.70;;;;;;4895750;29;19939;-85
2023/06/13 12:14:53;;;;;;;9.57;2.30;;;26.60;64.90;;;;;;4933600;28;20084;-84
2023/06/13 12:24:38;;;;;;;4.70;2.08;;;26.60;64.60;;;;;;4938114;28;20128;-85
2023/06/13 12:30:49;;;;;;;3.13;2.00;;;26.60;67.20;;;;;;5006226;28;20032;-85
2023/06/13 12:34:33;;;;;;;6.45;2.15;;;26.60;67.00;;;;;;4995051;28;20046;-85
2023/06/13 12:37:19;;;;;;;;;;;26.60;67.70;;;;;;5009933;28;20072;-85
2023/06/13 12:58:39;;;;;;;10.32;2.40;;;26.40;66.70;;;;;;4927142;29;20554;-83
2023/06/13 13:06:06;;;;;;;4.80;2.13;;;26.60;66.40;;;;;;4910470;29;20100;-85
2023/06/13 13:13:37;;;;;;;9.93;2.30;;;26.40;66.30;;;;;;4943986;28;20049;-85
2023/06/13 13:31:19;;;;;;;4.30;2.45;;;26.30;63.90;;;;;;4929493;28;20090;-83
2023/06/13 13:33:44;;;;;;;7.65;2.17;;;26.30;65.10;;;;;;4992332;28;20076;-84
2023/06/13 13:36:10;;;;;;;5.38;1.80;;;26.30;66.00;;;;;;5020021;28;20054;-85
2023/06/13 13:38:38;;;;;;;4.07;2.10;;;26.40;64.10;;;;;;4990832;28;20562;-84
2023/06/13 13:41:05;;;;;;;8.48;2.40;;;26.40;65.60;;;;;;4989484;28;20040;-85
2023/06/13 13:43:33;;;;;;;4.38;1.90;;;26.30;64.70;;;;;;5007306;28;20550;-85
2023/06/13 13:45:58;;;;;;;4.95;2.13;;;26.40;65.50;;;;;;4970007;28;20081;-84
2023/06/13 13:48:28;;;;;;;9.98;2.95;;;26.40;64.50;;;;;;5025618;28;20432;-85
2023/06/13 13:50:53;;;;;;;5.72;1.88;;;26.30;64.20;;;;;;4974007;28;20046;-85
2023/06/13 13:53:20;;;;;;;6.55;2.22;;;26.50;64.40;;;;;;5005219;28;20101;-84
2023/06/13 13:55:50;;;;;;;6.57;2.35;;;26.20;63.30;;;;;;5007774;28;20045;-84
2023/06/13 13:58:18;;;;;;;5.75;2.30;;;26.10;64.40;;;;;;4990660;28;20058;-85
2023/06/13 14:00:44;;;;;;;7.47;2.45;;;26.10;64.80;;;;;;4988073;28;20046;-84
2023/06/13 14:03:10;;;;;;;4.13;1.80;;;26.10;65.10;;;;;;5009969;28;20626;-85
2023/06/13 14:05:36;;;;;;;4.22;1.83;;;26.10;65.60;;;;;;4996155;28;20045;-84
2023/06/13 14:08:01;;;;;;;5.25;1.95;;;26.20;64.30;;;;;;4990296;28;20029;-85
2023/06/13 14:10:27;;;;;;;3.60;1.90;;;26.00;65.50;;;;;;5007786;28;20046;-85
2023/06/13 14:12:53;;;;;;;3.95;1.80;;;26.20;66.70;;;;;;5005475;28;20046;-84
2023/06/13 14:15:18;;;;;;;4.05;2.00;;;26.00;63.90;;;;;;5006625;28;20046;-84
2023/06/13 14:17:44;;;;;;;3.85;1.63;;;26.10;64.20;;;;;;5010765;28;20089;-85
2023/06/13 14:20:12;;;;;;;5.55;1.92;;;26.10;63.50;;;;;;5005397;28;20091;-85
2023/06/13 14:22:38;;;;;;;6.97;2.63;;;26.10;64.20;;;;;;5009626;28;20060;-85
2023/06/13 14:25:06;;;;;;;5.63;2.53;;;26.10;64.70;;;;;;5013328;28;20042;-85
2023/06/13 14:27:32;;;;;;;3.75;1.98;;;26.00;64.10;;;;;;5005061;28;20048;-84
2023/06/13 14:29:58;;;;;;;4.05;2.55;;;25.90;63.90;;;;;;4988588;28;20038;-84
2023/06/13 14:32:24;;;;;;;5.25;1.58;;;26.10;65.60;;;;;;4989617;28;20088;-85
2023/06/13 14:34:50;;;;;;;5.85;2.20;;;26.00;63.90;;;;;;4997181;28;20038;-84
2023/06/13 14:37:16;;;;;;;4.38;2.20;;;26.10;63.70;;;;;;4990222;28;20042;-84
2023/06/13 14:39:42;;;;;;;6.13;2.17;;;26.10;64.00;;;;;;5011860;28;20455;-85
2023/06/13 14:42:08;;;;;;;2.78;1.90;;;26.00;64.90;;;;;;5011618;28;20064;-85
2023/06/13 14:44:33;;;;;;;5.90;2.13;;;26.00;64.50;;;;;;5013886;28;20843;-85
2023/06/13 14:46:59;;;;;;;3.47;1.92;;;26.00;65.10;;;;;;4994649;28;20038;-85
2023/06/13 14:49:25;;;;;;;3.00;1.95;;;26.00;65.70;;;;;;5011057;28;20480;-85
2023/06/13 14:51:50;;;;;;;3.72;1.80;;;25.90;64.50;;;;;;5007612;28;20041;-84
2023/06/13 14:54:16;;;;;;;2.90;1.85;;;26.10;62.80;;;;;;4995103;28;20038;-85
2023/06/13 14:56:42;;;;;;;6.13;1.88;;;26.00;62.80;;;;;;4991838;28;20093;-84
2023/06/13 14:59:07;;;;;;;5.65;1.75;;;25.90;64.50;;;;;;5008597;28;20073;-84
2023/06/13 15:01:35;;;;;;;2.85;1.98;;;25.90;64.20;;;;;;5009323;28;20038;-84
2023/06/13 15:04:03;;;;;;;4.43;1.80;;;25.90;64.90;;;;;;5007543;28;20041;-84
2023/06/13 15:06:28;;;;;;;7.10;2.80;;;25.70;63.50;;;;;;5011149;28;20121;-84
2023/06/13 15:08:55;;;;;;;6.22;1.80;;;25.70;64.50;;;;;;5011463;28;20138;-85
2023/06/13 15:11:22;;;;;;;4.03;1.67;;;25.70;64.40;;;;;;5012063;28;20068;-84
2023/06/13 15:13:47;;;;;;;3.20;1.85;;;25.60;65.20;;;;;;5013290;28;20038;-85
2023/06/13 15:16:13;;;;;;;6.32;1.83;;;25.70;64.00;;;;;;5011539;28;20042;-84
2023/06/13 15:18:40;;;;;;;6.97;1.80;;;25.70;63.80;;;;;;4988444;28;20038;-82
2023/06/13 15:21:06;;;;;;;3.90;1.42;;;25.60;64.30;;;;;;5006376;28;20156;-85
2023/06/13 15:23:32;;;;;;;5.53;1.75;;;25.60;64.70;;;;;;5005251;28;20037;-84
2023/06/13 15:25:59;;;;;;;2.10;1.63;;;25.70;64.20;;;;;;5007793;28;20516;-82
2023/06/13 15:28:25;;;;;;;6.53;1.95;;;25.80;64.80;;;;;;5007121;28;20045;-84
2023/06/13 15:30:51;;;;;;;6.72;1.80;;;25.70;65.20;;;;;;5003435;28;20408;-84
2023/06/13 15:33:19;;;;;;;2.42;1.45;;;25.60;64.80;;;;;;4990434;28;20042;-84
2023/06/13 15:35:45;;;;;;;4.65;1.90;;;25.60;65.00;;;;;;5009803;28;20041;-85
2023/06/13 15:38:11;;;;;;;7.63;2.03;;;25.40;64.30;;;;;;5009593;28;20476;-84
2023/06/13 15:40:37;;;;;;;6.30;1.88;;;25.20;64.90;;;;;;5006399;28;20073;-84
2023/06/13 15:43:03;;;;;;;7.75;2.00;;;25.30;64.50;;;;;;4985795;28;20042;-84
2023/06/13 15:45:28;;;;;;;4.70;1.90;;;25.30;64.60;;;;;;5006649;28;21467;-83
2023/06/13 15:47:54;;;;;;;5.13;1.80;;;25.20;64.20;;;;;;5006693;28;20050;-83
2023/06/13 15:50:20;;;;;;;4.68;1.98;;;25.10;66.70;;;;;;5007013;28;20895;-83
2023/06/13 15:52:46;;;;;;;8.25;1.88;;;25.10;65.00;;;;;;4989913;28;20675;-83
2023/06/13 15:55:12;;;;;;;6.18;2.22;;;25.20;65.30;;;;;;5009037;28;20046;-83
2023/06/13 15:58:00;;;;;;;4.68;1.63;;;25.00;64.50;;;;;;5004044;28;20042;-84
2023/06/13 16:00:25;;;;;;;5.43;1.90;;;25.00;65.80;;;;;;5005150;28;20056;-82
2023/06/13 16:02:51;;;;;;;3.08;1.55;;;25.00;64.90;;;;;;5004495;28;20045;-84
2023/06/13 16:05:19;;;;;;;3.22;1.50;;;25.00;64.50;;;;;;5006999;28;20047;-86
2023/06/13 16:07:45;;;;;;;4.50;1.55;;;24.90;64.30;;;;;;5010496;28;20030;-85
2023/06/13 16:10:11;;;;;;;4.50;1.80;;;24.80;65.30;;;;;;5009356;28;20480;-85
2023/06/13 16:12:39;;;;;;;8.13;1.95;;;25.10;65.40;;;;;;5007423;28;20118;-84
2023/06/13 16:15:06;;;;;;;6.25;1.83;;;24.90;66.00;;;;;;5005833;28;20480;-83
2023/06/13 16:17:31;;;;;;;4.40;1.60;;;24.80;65.10;;;;;;5009700;28;20143;-85
2023/06/13 16:19:57;;;;;;;3.85;1.40;;;24.70;64.80;;;;;;5009030;28;20567;-81
2023/06/13 16:22:22;;;;;;;4.20;2.13;;;24.80;65.50;;;;;;5003284;28;20456;-83
2023/06/13 16:24:48;;;;;;;3.50;1.90;;;24.80;65.60;;;;;;5005406;28;20037;-84
2023/06/13 16:27:14;;;;;;;3.13;1.30;;;24.70;65.40;;;;;;4986151;28;20046;-83
2023/06/13 16:29:39;;;;;;;8.93;1.65;;;24.70;66.00;;;;;;5006208;28;20864;-82
2023/06/13 16:32:07;;;;;;;5.68;1.90;;;24.70;65.30;;;;;;5004369;28;20049;-85
2023/06/13 16:34:33;;;;;;;5.03;1.50;;;24.60;64.90;;;;;;4973644;28;20041;-83
2023/06/13 16:36:58;;;;;;;2.35;1.10;;;24.60;65.10;;;;;;5001974;28;20045;-83
2023/06/13 16:39:26;;;;;;;5.38;1.65;;;24.50;66.50;;;;;;5001300;28;20046;-83
2023/06/13 16:42:00;;;;;;;7.75;1.77;;;24.50;67.60;;;;;;4970994;28;20122;-85
2023/06/13 16:44:27;;;;;;;5.05;1.50;;;24.50;66.40;;;;;;5008376;28;20034;-85
2023/06/13 16:47:02;;;;;;;11.60;2.10;;;24.50;65.00;;;;;;4988525;28;20037;-85
2023/06/13 16:49:29;;;;;;;11.85;1.90;;;24.40;65.30;;;;;;5006311;28;20753;-85
2023/06/13 16:51:55;;;;;;;5.53;1.63;;;24.40;65.30;;;;;;4990953;28;20092;-83
2023/06/13 16:54:20;;;;;;;3.50;1.83;;;24.30;65.70;;;;;;5006844;28;20049;-83
2023/06/13 16:56:46;;;;;;;5.28;1.83;;;24.50;64.90;;;;;;5005500;28;20053;-84
2023/06/13 16:59:13;;;;;;;2.35;1.65;;;24.30;64.90;;;;;;5006572;28;20045;-84
2023/06/13 17:01:39;;;;;;;6.90;1.73;;;24.20;65.20;;;;;;4989923;28;20069;-83
2023/06/13 17:04:04;;;;;;;7.00;1.60;;;24.20;65.50;;;;;;4989223;28;20080;-85